Terminal Aerodrome Forecast
Issued by NWS

Home | Current Version | Previous Version | Text Only | Print | Product List | Glossary On
Versions: 1 2 3 4 5 6 7 8 9 10 11 12 13 14 15 16 17 18 19 20 21
000
FTUS43 KDTX 232320
TAFMBS
TAF
KMBS 232320Z 2400/2424 34005KT P6SM FEW060 BKN120
      TEMPO 2400/2402 -RA
     FM240200 06004KT P6SM OVC100
     FM241300 06011KT P6SM SCT007 BKN100
     FM241800 08010KT 5SM -SHRA BR BKN035=

USA.gov is the U.S. government's official web portal to all federal, state and local government web resources and services.